sensor_id;sensor_type;location;lat;lon;timestamp;pressure;altitude;pressure_sealevel;temperature;humidity
7760;BME280;3924;48.830;9.262;2022-11-15T00:00:49;98394.72;;;9.03;85.66
7760;BME280;3924;48.830;9.262;2022-11-15T00:03:27;98395.22;;;9.05;84.87
7760;BME280;3924;48.830;9.262;2022-11-15T00:05:53;98391.69;;;9.10;85.52
7760;BME280;3924;48.830;9.262;2022-11-15T00:08:20;98390.31;;;9.13;85.54
7760;BME280;3924;48.830;9.262;2022-11-15T00:10:57;98389.47;;;9.12;85.41
7760;BME280;3924;48.830;9.262;2022-11-15T00:13:23;98398.13;;;9.14;84.95
7760;BME280;3924;48.830;9.262;2022-11-15T00:15:50;98402.75;;;9.14;85.04
7760;BME280;3924;48.830;9.262;2022-11-15T00:18:17;98398.69;;;9.11;85.75
7760;BME280;3924;48.830;9.262;2022-11-15T00:20:43;98400.09;;;9.09;84.88
7760;BME280;3924;48.830;9.262;2022-11-15T00:23:10;98396.88;;;9.07;85.85
7760;BME280;3924;48.830;9.262;2022-11-15T00:25:37;98394.44;;;9.05;85.22
7760;BME280;3924;48.830;9.262;2022-11-15T00:28:03;98400.63;;;9.05;84.94
7760;BME280;3924;48.830;9.262;2022-11-15T00:30:30;98399.03;;;9.04;85.46
7760;BME280;3924;48.830;9.262;2022-11-15T00:32:56;98403.06;;;9.07;85.41
7760;BME280;3924;48.830;9.262;2022-11-15T00:35:27;98403.59;;;9.09;85.60
7760;BME280;3924;48.830;9.262;2022-11-15T00:37:53;98386.56;;;9.09;85.04
7760;BME280;3924;48.830;9.262;2022-11-15T00:40:20;98393.56;;;9.10;85.51
7760;BME280;3924;48.830;9.262;2022-11-15T00:42:46;98378.44;;;9.09;85.89
7760;BME280;3924;48.830;9.262;2022-11-15T00:45:12;98382.25;;;9.08;84.82
7760;BME280;3924;48.830;9.262;2022-11-15T00:47:39;98380.41;;;9.03;85.41
7760;BME280;3924;48.830;9.262;2022-11-15T00:50:05;98377.47;;;8.99;84.93
7760;BME280;3924;48.830;9.262;2022-11-15T00:52:32;98377.53;;;8.94;85.99
7760;BME280;3924;48.830;9.262;2022-11-15T00:54:58;98373.47;;;8.92;85.95
7760;BME280;3924;48.830;9.262;2022-11-15T00:57:24;98372.16;;;8.89;85.13
7760;BME280;3924;48.830;9.262;2022-11-15T00:59:51;98366.78;;;8.84;86.04
7760;BME280;3924;48.830;9.262;2022-11-15T01:02:17;98365.78;;;8.80;85.38
7760;BME280;3924;48.830;9.262;2022-11-15T01:04:44;98375.25;;;8.77;85.44
7760;BME280;3924;48.830;9.262;2022-11-15T01:07:10;98370.88;;;8.82;86.20
7760;BME280;3924;48.830;9.262;2022-11-15T01:09:36;98367.94;;;8.78;85.38
7760;BME280;3924;48.830;9.262;2022-11-15T01:12:03;98363.09;;;8.75;85.96
7760;BME280;3924;48.830;9.262;2022-11-15T01:14:30;98365.31;;;8.73;85.48
7760;BME280;3924;48.830;9.262;2022-11-15T01:16:56;98357.44;;;8.71;85.24
7760;BME280;3924;48.830;9.262;2022-11-15T01:19:22;98353.22;;;8.65;85.97
7760;BME280;3924;48.830;9.262;2022-11-15T01:21:50;98355.16;;;8.60;86.04
7760;BME280;3924;48.830;9.262;2022-11-15T01:24:16;98355.47;;;8.53;85.78
7760;BME280;3924;48.830;9.262;2022-11-15T01:26:43;98353.09;;;8.46;85.64
7760;BME280;3924;48.830;9.262;2022-11-15T01:29:09;98351.81;;;8.39;86.45
7760;BME280;3924;48.830;9.262;2022-11-15T01:31:36;98353.22;;;8.31;85.97
7760;BME280;3924;48.830;9.262;2022-11-15T01:34:02;98353.53;;;8.25;85.97
7760;BME280;3924;48.830;9.262;2022-11-15T01:36:28;98352.75;;;8.19;86.74
7760;BME280;3924;48.830;9.262;2022-11-15T01:38:56;98344.69;;;8.14;86.08
7760;BME280;3924;48.830;9.262;2022-11-15T01:41:26;98347.16;;;8.10;86.25
7760;BME280;3924;48.830;9.262;2022-11-15T01:43:55;98345.28;;;8.06;86.56
7760;BME280;3924;48.830;9.262;2022-11-15T01:46:27;98342.34;;;8.02;86.85
7760;BME280;3924;48.830;9.262;2022-11-15T01:48:58;98332.34;;;8.03;86.66
7760;BME280;3924;48.830;9.262;2022-11-15T01:51:26;98343.69;;;8.05;86.48
7760;BME280;3924;48.830;9.262;2022-11-15T01:53:58;98341.50;;;8.07;86.10
7760;BME280;3924;48.830;9.262;2022-11-15T01:56:30;98343.69;;;8.05;86.76
7760;BME280;3924;48.830;9.262;2022-11-15T01:59:01;98335.03;;;8.03;86.76
7760;BME280;3924;48.830;9.262;2022-11-15T02:01:30;98332.41;;;7.98;86.80
7760;BME280;3924;48.830;9.262;2022-11-15T02:04:00;98332.94;;;7.94;86.20
7760;BME280;3924;48.830;9.262;2022-11-15T02:06:27;98326.47;;;7.95;87.18
7760;BME280;3924;48.830;9.262;2022-11-15T02:08:54;98329.66;;;8.03;86.67
7760;BME280;3924;48.830;9.262;2022-11-15T02:11:22;98328.28;;;8.10;86.63
7760;BME280;3924;48.830;9.262;2022-11-15T02:13:48;98329.81;;;8.16;86.46
7760;BME280;3924;48.830;9.262;2022-11-15T02:19:35;98317.88;;;8.22;86.49
7760;BME280;3924;48.830;9.262;2022-11-15T02:22:39;98319.22;;;8.25;85.88
7760;BME280;3924;48.830;9.262;2022-11-15T02:31:07;98312.13;;;8.34;86.55
7760;BME280;3924;48.830;9.262;2022-11-15T02:33:48;98306.22;;;8.32;86.42
7760;BME280;3924;48.830;9.262;2022-11-15T02:36:36;98295.41;;;8.32;86.41
7760;BME280;3924;48.830;9.262;2022-11-15T02:39:18;98301.31;;;8.34;85.87
7760;BME280;3924;48.830;9.262;2022-11-15T02:42:02;98294.31;;;8.38;86.16
7760;BME280;3924;48.830;9.262;2022-11-15T02:44:37;98292.13;;;8.40;86.25
7760;BME280;3924;48.830;9.262;2022-11-15T02:47:12;98292.13;;;8.40;85.59
7760;BME280;3924;48.830;9.262;2022-11-15T02:49:45;98292.91;;;8.41;85.55
7760;BME280;3924;48.830;9.262;2022-11-15T02:52:19;98289.94;;;8.42;86.71
7760;BME280;3924;48.830;9.262;2022-11-15T02:54:59;98280.16;;;8.46;85.84
7760;BME280;3924;48.830;9.262;2022-11-15T03:02:42;98280.13;;;8.52;85.37
7760;BME280;3924;48.830;9.262;2022-11-15T03:05:18;98272.56;;;8.48;86.27
7760;BME280;3924;48.830;9.262;2022-11-15T03:07:53;98273.16;;;8.45;85.61
7760;BME280;3924;48.830;9.262;2022-11-15T03:10:37;98269.38;;;8.46;85.68
7760;BME280;3924;48.830;9.262;2022-11-15T03:13:16;98268.78;;;8.49;86.51
7760;BME280;3924;48.830;9.262;2022-11-15T03:18:36;98265.53;;;8.53;86.16
7760;BME280;3924;48.830;9.262;2022-11-15T03:21:06;98264.97;;;8.50;86.19
7760;BME280;3924;48.830;9.262;2022-11-15T03:23:35;98258.78;;;8.50;85.59
7760;BME280;3924;48.830;9.262;2022-11-15T03:26:05;98253.97;;;8.47;85.45
7760;BME280;3924;48.830;9.262;2022-11-15T03:28:44;98255.91;;;8.41;86.00
7760;BME280;3924;48.830;9.262;2022-11-15T03:31:15;98257.31;;;8.34;86.05
7760;BME280;3924;48.830;9.262;2022-11-15T03:34:04;98253.88;;;8.23;85.96
7760;BME280;3924;48.830;9.262;2022-11-15T03:36:34;98251.81;;;8.15;86.25
7760;BME280;3924;48.830;9.262;2022-11-15T03:39:05;98249.44;;;8.08;85.99
7760;BME280;3924;48.830;9.262;2022-11-15T03:41:56;98248.44;;;7.99;85.70
7760;BME280;3924;48.830;9.262;2022-11-15T03:44:58;98256.88;;;7.92;86.08
7760;BME280;3924;48.830;9.262;2022-11-15T03:47:36;98251.50;;;7.87;86.42
7760;BME280;3924;48.830;9.262;2022-11-15T03:50:17;98250.47;;;7.83;86.61
7760;BME280;3924;48.830;9.262;2022-11-15T03:52:45;98246.41;;;7.81;86.76
7760;BME280;3924;48.830;9.262;2022-11-15T03:55:16;98237.81;;;7.79;86.52
7760;BME280;3924;48.830;9.262;2022-11-15T03:57:43;98231.34;;;7.75;86.84
7760;BME280;3924;48.830;9.262;2022-11-15T04:00:10;98230.56;;;7.74;86.34
7760;BME280;3924;48.830;9.262;2022-11-15T04:02:37;98228.94;;;7.73;86.79
7760;BME280;3924;48.830;9.262;2022-11-15T04:05:04;98228.94;;;7.73;87.33
7760;BME280;3924;48.830;9.262;2022-11-15T04:07:30;98227.84;;;7.74;86.41
7760;BME280;3924;48.830;9.262;2022-11-15T04:09:57;98225.16;;;7.74;87.04
7760;BME280;3924;48.830;9.262;2022-11-15T04:12:31;98230.00;;;7.77;86.54
7760;BME280;3924;48.830;9.262;2022-11-15T04:17:50;98239.41;;;7.80;86.77
7760;BME280;3924;48.830;9.262;2022-11-15T04:20:19;98239.41;;;7.80;86.96
7760;BME280;3924;48.830;9.262;2022-11-15T04:23:10;98235.13;;;7.79;86.59
7760;BME280;3924;48.830;9.262;2022-11-15T04:25:59;98227.34;;;7.72;87.00
7760;BME280;3924;48.830;9.262;2022-11-15T04:28:26;98233.31;;;7.69;86.72
7760;BME280;3924;48.830;9.262;2022-11-15T04:30:53;98227.38;;;7.67;87.12
7760;BME280;3924;48.830;9.262;2022-11-15T04:33:19;98218.25;;;7.63;87.19
7760;BME280;3924;48.830;9.262;2022-11-15T04:35:46;98235.25;;;7.63;87.22
7760;BME280;3924;48.830;9.262;2022-11-15T04:38:32;98222.56;;;7.64;87.43
7760;BME280;3924;48.830;9.262;2022-11-15T04:40:59;98231.16;;;7.66;87.11
7760;BME280;3924;48.830;9.262;2022-11-15T04:43:26;98226.06;;;7.64;86.43
7760;BME280;3924;48.830;9.262;2022-11-15T04:45:52;98227.16;;;7.63;87.29
7760;BME280;3924;48.830;9.262;2022-11-15T04:48:19;98216.63;;;7.62;86.91
7760;BME280;3924;48.830;9.262;2022-11-15T04:50:48;98204.50;;;7.59;87.71
7760;BME280;3924;48.830;9.262;2022-11-15T04:53:15;98206.69;;;7.57;87.82
7760;BME280;3924;48.830;9.262;2022-11-15T04:55:49;98204.53;;;7.54;86.77
7760;BME280;3924;48.830;9.262;2022-11-15T04:58:19;98198.91;;;7.51;87.10
7760;BME280;3924;48.830;9.262;2022-11-15T05:00:46;98208.63;;;7.47;86.90
7760;BME280;3924;48.830;9.262;2022-11-15T05:03:15;98204.09;;;7.42;87.95
7760;BME280;3924;48.830;9.262;2022-11-15T05:06:01;98198.44;;;7.38;87.45
7760;BME280;3924;48.830;9.262;2022-11-15T05:08:28;98198.47;;;7.33;88.03
7760;BME280;3924;48.830;9.262;2022-11-15T05:10:56;98199.06;;;7.30;87.73
7760;BME280;3924;48.830;9.262;2022-11-15T05:13:23;98197.72;;;7.28;87.05
7760;BME280;3924;48.830;9.262;2022-11-15T05:15:51;98188.81;;;7.27;87.95
7760;BME280;3924;48.830;9.262;2022-11-15T05:18:19;98193.41;;;7.27;87.63
7760;BME280;3924;48.830;9.262;2022-11-15T05:20:49;98183.19;;;7.24;87.65
7760;BME280;3924;48.830;9.262;2022-11-15T05:23:17;98192.59;;;7.26;87.84
7760;BME280;3924;48.830;9.262;2022-11-15T05:25:45;98187.22;;;7.26;87.46
7760;BME280;3924;48.830;9.262;2022-11-15T05:28:15;98193.69;;;7.25;87.17
7760;BME280;3924;48.830;9.262;2022-11-15T05:30:43;98188.88;;;7.22;87.90
7760;BME280;3924;48.830;9.262;2022-11-15T05:33:19;98192.66;;;7.21;87.69
7760;BME280;3924;48.830;9.262;2022-11-15T05:35:58;98187.50;;;7.20;88.49
7760;BME280;3924;48.830;9.262;2022-11-15T05:38:33;98188.91;;;7.17;87.72
7760;BME280;3924;48.830;9.262;2022-11-15T05:41:06;98182.69;;;7.17;88.04
7760;BME280;3924;48.830;9.262;2022-11-15T05:43:40;98182.69;;;7.17;88.08
7760;BME280;3924;48.830;9.262;2022-11-15T05:46:13;98178.63;;;7.19;88.05
7760;BME280;3924;48.830;9.262;2022-11-15T05:48:48;98172.97;;;7.21;87.51
7760;BME280;3924;48.830;9.262;2022-11-15T05:51:18;98171.59;;;7.23;87.93
7760;BME280;3924;48.830;9.262;2022-11-15T05:53:48;98178.59;;;7.24;88.56
7760;BME280;3924;48.830;9.262;2022-11-15T05:56:18;98177.50;;;7.25;88.00
7760;BME280;3924;48.830;9.262;2022-11-15T05:58:48;98178.03;;;7.27;87.93
7760;BME280;3924;48.830;9.262;2022-11-15T06:01:21;98175.91;;;7.24;88.17
7760;BME280;3924;48.830;9.262;2022-11-15T06:03:59;98169.41;;;7.25;88.01
7760;BME280;3924;48.830;9.262;2022-11-15T06:06:28;98174.81;;;7.25;87.91
7760;BME280;3924;48.830;9.262;2022-11-15T06:08:59;98185.59;;;7.25;87.68
7760;BME280;3924;48.830;9.262;2022-11-15T06:11:27;98183.47;;;7.22;88.11
7760;BME280;3924;48.830;9.262;2022-11-15T06:13:57;98179.19;;;7.21;87.94
7760;BME280;3924;48.830;9.262;2022-11-15T06:16:25;98179.19;;;7.21;87.88
7760;BME280;3924;48.830;9.262;2022-11-15T06:18:52;98180.78;;;7.22;88.31
7760;BME280;3924;48.830;9.262;2022-11-15T06:21:22;98184.00;;;7.24;88.37
7760;BME280;3924;48.830;9.262;2022-11-15T06:23:50;98172.63;;;7.27;88.26
7760;BME280;3924;48.830;9.262;2022-11-15T06:26:21;98185.06;;;7.28;88.09
7760;BME280;3924;48.830;9.262;2022-11-15T06:28:58;98185.06;;;7.28;87.95
7760;BME280;3924;48.830;9.262;2022-11-15T06:31:25;98181.28;;;7.29;87.55
7760;BME280;3924;48.830;9.262;2022-11-15T06:33:52;98180.47;;;7.29;87.89
7760;BME280;3924;48.830;9.262;2022-11-15T06:36:19;98178.88;;;7.28;88.25
7760;BME280;3924;48.830;9.262;2022-11-15T06:38:49;98188.28;;;7.25;88.24
7760;BME280;3924;48.830;9.262;2022-11-15T06:41:22;98180.22;;;7.25;88.52
7760;BME280;3924;48.830;9.262;2022-11-15T06:43:52;98181.81;;;7.26;88.01
7760;BME280;3924;48.830;9.262;2022-11-15T06:46:22;98182.63;;;7.27;88.37
7760;BME280;3924;48.830;9.262;2022-11-15T06:48:53;98174.78;;;7.30;88.47
7760;BME280;3924;48.830;9.262;2022-11-15T06:51:23;98178.81;;;7.33;88.28
7760;BME280;3924;48.830;9.262;2022-11-15T06:53:57;98181.50;;;7.33;87.69
7760;BME280;3924;48.830;9.262;2022-11-15T06:56:34;98192.28;;;7.33;88.07
7760;BME280;3924;48.830;9.262;2022-11-15T06:59:02;98193.66;;;7.30;88.08
7760;BME280;3924;48.830;9.262;2022-11-15T07:01:32;98189.88;;;7.31;88.95
7760;BME280;3924;48.830;9.262;2022-11-15T07:04:03;98191.47;;;7.32;88.05
7760;BME280;3924;48.830;9.262;2022-11-15T07:06:33;98192.53;;;7.36;88.97
7760;BME280;3924;48.830;9.262;2022-11-15T07:09:02;98187.38;;;7.40;88.00
7760;BME280;3924;48.830;9.262;2022-11-15T07:11:33;98198.44;;;7.44;88.38
7760;BME280;3924;48.830;9.262;2022-11-15T07:14:01;98197.84;;;7.47;87.81
7760;BME280;3924;48.830;9.262;2022-11-15T07:16:31;98199.44;;;7.53;87.97
7760;BME280;3924;48.830;9.262;2022-11-15T07:18:59;98200.19;;;7.58;88.30
7760;BME280;3924;48.830;9.262;2022-11-15T07:21:26;98196.66;;;7.63;88.04
7760;BME280;3924;48.830;9.262;2022-11-15T07:23:53;98205.50;;;7.68;87.95
7760;BME280;3924;48.830;9.262;2022-11-15T07:26:24;98194.44;;;7.70;87.59
7760;BME280;3924;48.830;9.262;2022-11-15T07:28:51;98201.16;;;7.73;87.60
7760;BME280;3924;48.830;9.262;2022-11-15T07:31:20;98198.44;;;7.78;87.61
7760;BME280;3924;48.830;9.262;2022-11-15T07:34:01;98204.31;;;7.85;87.65
7760;BME280;3924;48.830;9.262;2022-11-15T07:36:29;98199.91;;;7.94;87.90
7760;BME280;3924;48.830;9.262;2022-11-15T07:39:02;98199.00;;;8.04;87.18
7760;BME280;3924;48.830;9.262;2022-11-15T07:41:29;98201.59;;;8.14;87.16
7760;BME280;3924;48.830;9.262;2022-11-15T07:43:57;98191.78;;;8.23;87.56
7760;BME280;3924;48.830;9.262;2022-11-15T07:46:25;98188.97;;;8.33;86.81
7760;BME280;3924;48.830;9.262;2022-11-15T07:48:55;98193.72;;;8.46;87.28
7760;BME280;3924;48.830;9.262;2022-11-15T07:51:23;98185.22;;;8.58;86.57
7760;BME280;3924;48.830;9.262;2022-11-15T07:53:53;98185.59;;;8.70;86.81
7760;BME280;3924;48.830;9.262;2022-11-15T07:56:24;98184.59;;;8.85;87.04
7760;BME280;3924;48.830;9.262;2022-11-15T07:58:51;98176.56;;;8.99;86.50
7760;BME280;3924;48.830;9.262;2022-11-15T08:01:22;98175.34;;;9.10;85.69
7760;BME280;3924;48.830;9.262;2022-11-15T08:03:50;98178.78;;;9.16;85.77
7760;BME280;3924;48.830;9.262;2022-11-15T08:06:17;98176.81;;;9.21;86.61
7760;BME280;3924;48.830;9.262;2022-11-15T08:08:46;98167.00;;;9.25;85.73
7760;BME280;3924;48.830;9.262;2022-11-15T08:11:22;98170.94;;;9.33;85.83
7760;BME280;3924;48.830;9.262;2022-11-15T08:13:50;98167.88;;;9.40;85.72
7760;BME280;3924;48.830;9.262;2022-11-15T08:16:18;98172.91;;;9.46;86.19
7760;BME280;3924;48.830;9.262;2022-11-15T08:18:46;98167.34;;;9.56;84.98
7760;BME280;3924;48.830;9.262;2022-11-15T08:21:22;98164.56;;;9.62;85.20
7760;BME280;3924;48.830;9.262;2022-11-15T08:23:50;98157.69;;;9.69;85.74
7760;BME280;3924;48.830;9.262;2022-11-15T08:26:20;98155.97;;;9.73;85.25
7760;BME280;3924;48.830;9.262;2022-11-15T08:28:47;98152.69;;;9.76;85.25
7760;BME280;3924;48.830;9.262;2022-11-15T08:31:17;98156.75;;;9.74;84.96
7760;BME280;3924;48.830;9.262;2022-11-15T08:33:45;98148.16;;;9.72;85.88
7760;BME280;3924;48.830;9.262;2022-11-15T08:36:15;98146.53;;;9.71;85.98
7760;BME280;3924;48.830;9.262;2022-11-15T08:38:52;98147.34;;;9.71;85.94
7760;BME280;3924;48.830;9.262;2022-11-15T08:41:32;98148.16;;;9.72;85.00
7760;BME280;3924;48.830;9.262;2022-11-15T08:44:11;98143.75;;;9.76;84.80
7760;BME280;3924;48.830;9.262;2022-11-15T08:46:45;98142.56;;;9.82;85.69
7760;BME280;3924;48.830;9.262;2022-11-15T08:49:12;98134.94;;;9.84;85.16
7760;BME280;3924;48.830;9.262;2022-11-15T08:51:39;98131.75;;;9.82;85.38
7760;BME280;3924;48.830;9.262;2022-11-15T08:54:06;98134.94;;;9.84;84.81
7760;BME280;3924;48.830;9.262;2022-11-15T08:56:32;98129.72;;;9.87;85.40
7760;BME280;3924;48.830;9.262;2022-11-15T08:58:58;98126.63;;;9.94;85.02
7760;BME280;3924;48.830;9.262;2022-11-15T09:01:25;98129.75;;;10.01;85.36
7760;BME280;3924;48.830;9.262;2022-11-15T09:03:51;98122.75;;;10.14;84.52
7760;BME280;3924;48.830;9.262;2022-11-15T09:06:18;98117.97;;;10.25;83.98
7760;BME280;3924;48.830;9.262;2022-11-15T09:08:45;98111.75;;;10.38;84.63
7760;BME280;3924;48.830;9.262;2022-11-15T09:11:13;98115.25;;;10.52;83.65
7760;BME280;3924;48.830;9.262;2022-11-15T09:13:42;98114.44;;;10.65;84.40
7760;BME280;3924;48.830;9.262;2022-11-15T09:16:08;98107.66;;;10.77;83.03
7760;BME280;3924;48.830;9.262;2022-11-15T09:18:35;98111.75;;;10.88;82.96
7760;BME280;3924;48.830;9.262;2022-11-15T09:21:02;98115.66;;;10.95;83.75
7760;BME280;3924;48.830;9.262;2022-11-15T09:23:29;98116.84;;;11.03;82.93
7760;BME280;3924;48.830;9.262;2022-11-15T09:26:00;98120.44;;;11.12;83.47
7760;BME280;3924;48.830;9.262;2022-11-15T09:28:28;98123.41;;;11.24;83.00
7760;BME280;3924;48.830;9.262;2022-11-15T09:30:57;98110.72;;;11.34;83.12
7760;BME280;3924;48.830;9.262;2022-11-15T09:33:25;98116.19;;;11.42;82.44
7760;BME280;3924;48.830;9.262;2022-11-15T09:35:52;98108.91;;;11.51;81.62
7760;BME280;3924;48.830;9.262;2022-11-15T09:38:18;98105.75;;;11.58;82.50
7760;BME280;3924;48.830;9.262;2022-11-15T09:40:49;98106.91;;;11.66;82.05
7760;BME280;3924;48.830;9.262;2022-11-15T09:43:34;98112.00;;;11.81;81.95
7760;BME280;3924;48.830;9.262;2022-11-15T09:46:28;98102.53;;;12.01;81.53
7760;BME280;3924;48.830;9.262;2022-11-15T09:49:01;98105.28;;;12.18;81.21
7760;BME280;3924;48.830;9.262;2022-11-15T09:51:34;98095.59;;;12.35;80.62
7760;BME280;3924;48.830;9.262;2022-11-15T09:54:29;98089.88;;;12.45;80.25
7760;BME280;3924;48.830;9.262;2022-11-15T09:57:30;98086.84;;;12.55;80.34
7760;BME280;3924;48.830;9.262;2022-11-15T10:00:09;98084.63;;;12.74;80.78
7760;BME280;3924;48.830;9.262;2022-11-15T10:03:18;98079.22;;;12.92;80.15
7760;BME280;3924;48.830;9.262;2022-11-15T10:06:26;98077.78;;;13.03;79.65
7760;BME280;3924;48.830;9.262;2022-11-15T10:09:11;98079.88;;;13.14;79.04
7760;BME280;3924;48.830;9.262;2022-11-15T10:11:49;98081.97;;;13.26;78.91
7760;BME280;3924;48.830;9.262;2022-11-15T10:14:18;98077.47;;;13.13;79.26
7760;BME280;3924;48.830;9.262;2022-11-15T10:16:56;98065.28;;;13.02;79.42
7760;BME280;3924;48.830;9.262;2022-11-15T10:25:10;98062.41;;;12.81;79.00
7760;BME280;3924;48.830;9.262;2022-11-15T10:27:43;98059.84;;;12.76;78.88
7760;BME280;3924;48.830;9.262;2022-11-15T10:30:16;98058.09;;;12.71;78.52
7760;BME280;3924;48.830;9.262;2022-11-15T10:32:48;98051.34;;;12.69;78.81
7760;BME280;3924;48.830;9.262;2022-11-15T10:35:35;98043.03;;;12.65;78.82
7760;BME280;3924;48.830;9.262;2022-11-15T10:38:08;98047.38;;;12.66;78.72
7760;BME280;3924;48.830;9.262;2022-11-15T10:40:37;98036.16;;;12.68;79.03
7760;BME280;3924;48.830;9.262;2022-11-15T10:43:15;98033.75;;;12.66;78.81
7760;BME280;3924;48.830;9.262;2022-11-15T10:45:46;98033.59;;;12.63;78.51
7760;BME280;3924;48.830;9.262;2022-11-15T10:48:21;98029.13;;;12.58;78.60
7760;BME280;3924;48.830;9.262;2022-11-15T10:50:51;98031.03;;;12.57;78.49
7760;BME280;3924;48.830;9.262;2022-11-15T10:53:28;98027.53;;;12.57;79.27
7760;BME280;3924;48.830;9.262;2022-11-15T10:56:02;98015.06;;;12.56;78.20
7760;BME280;3924;48.830;9.262;2022-11-15T10:58:47;98016.66;;;12.57;78.53
7760;BME280;3924;48.830;9.262;2022-11-15T11:01:25;98012.81;;;12.58;77.73
7760;BME280;3924;48.830;9.262;2022-11-15T11:04:07;98017.59;;;12.61;78.20
7760;BME280;3924;48.830;9.262;2022-11-15T11:06:54;98017.59;;;12.61;78.53
7760;BME280;3924;48.830;9.262;2022-11-15T11:09:36;98008.31;;;12.62;78.06
7760;BME280;3924;48.830;9.262;2022-11-15T11:12:10;98012.16;;;12.61;77.92
7760;BME280;3924;48.830;9.262;2022-11-15T11:14:41;98007.38;;;12.58;78.59
7760;BME280;3924;48.830;9.262;2022-11-15T11:20:49;98007.03;;;12.51;77.75
7760;BME280;3924;48.830;9.262;2022-11-15T11:26:15;98004.47;;;12.46;77.47
7760;BME280;3924;48.830;9.262;2022-11-15T11:29:44;98005.28;;;12.46;77.84
7760;BME280;3924;48.830;9.262;2022-11-15T11:38:17;97990.41;;;12.61;77.34
7760;BME280;3924;48.830;9.262;2022-11-15T11:48:59;97971.69;;;12.85;76.44
7760;BME280;3924;48.830;9.262;2022-11-15T11:52:09;97965.91;;;12.87;76.45
7760;BME280;3924;48.830;9.262;2022-11-15T11:57:43;97963.19;;;12.96;75.76
7760;BME280;3924;48.830;9.262;2022-11-15T12:00:25;97957.09;;;12.99;75.80
7760;BME280;3924;48.830;9.262;2022-11-15T12:05:49;97964.28;;;13.03;75.27
7760;BME280;3924;48.830;9.262;2022-11-15T12:09:01;97956.78;;;13.00;75.62
7760;BME280;3924;48.830;9.262;2022-11-15T12:14:34;97951.16;;;13.14;74.77
7760;BME280;3924;48.830;9.262;2022-11-15T12:17:07;97939.47;;;13.22;74.63
7760;BME280;3924;48.830;9.262;2022-11-15T12:19:38;97932.09;;;13.31;74.75
7760;BME280;3924;48.830;9.262;2022-11-15T12:22:56;97924.84;;;13.35;74.52
7760;BME280;3924;48.830;9.262;2022-11-15T12:25:27;97926.78;;;13.35;74.10
7760;BME280;3924;48.830;9.262;2022-11-15T12:28:07;97928.41;;;13.27;74.52
7760;BME280;3924;48.830;9.262;2022-11-15T12:31:00;97928.09;;;13.20;74.72
7760;BME280;3924;48.830;9.262;2022-11-15T12:33:46;97929.38;;;13.14;75.08
7760;BME280;3924;48.830;9.262;2022-11-15T12:38:57;97925.56;;;13.06;74.68
7760;BME280;3924;48.830;9.262;2022-11-15T12:49:45;97921.44;;;12.92;75.21
7760;BME280;3924;48.830;9.262;2022-11-15T12:52:13;97921.72;;;12.90;75.04
7760;BME280;3924;48.830;9.262;2022-11-15T12:57:28;97915.50;;;12.90;74.62
7760;BME280;3924;48.830;9.262;2022-11-15T13:03:18;97903.03;;;12.88;74.17
7760;BME280;3924;48.830;9.262;2022-11-15T13:05:56;97899.50;;;12.88;74.71
7760;BME280;3924;48.830;9.262;2022-11-15T13:08:42;97896.00;;;12.87;74.77
7760;BME280;3924;48.830;9.262;2022-11-15T13:11:43;97888.63;;;12.88;75.15
7760;BME280;3924;48.830;9.262;2022-11-15T13:14:42;97889.09;;;12.90;74.44
7760;BME280;3924;48.830;9.262;2022-11-15T13:22:52;97872.28;;;12.88;74.40
7760;BME280;3924;48.830;9.262;2022-11-15T13:30:58;97867.94;;;12.96;74.32
7760;BME280;3924;48.830;9.262;2022-11-15T13:33:33;97858.34;;;12.98;74.18
7760;BME280;3924;48.830;9.262;2022-11-15T13:39:00;97863.81;;;12.98;73.77
7760;BME280;3924;48.830;9.262;2022-11-15T13:41:32;97855.16;;;12.96;74.93
7760;BME280;3924;48.830;9.262;2022-11-15T13:44:01;97857.56;;;12.98;74.35
7760;BME280;3924;48.830;9.262;2022-11-15T13:46:33;97842.03;;;12.98;74.71
7760;BME280;3924;48.830;9.262;2022-11-15T13:49:05;97842.03;;;12.98;73.82
7760;BME280;3924;48.830;9.262;2022-11-15T13:51:45;97837.38;;;12.99;74.21
7760;BME280;3924;48.830;9.262;2022-11-15T13:54:25;97839.63;;;12.97;74.80
7760;BME280;3924;48.830;9.262;2022-11-15T13:57:02;97832.59;;;12.96;74.45
7760;BME280;3924;48.830;9.262;2022-11-15T13:59:49;97830.53;;;12.93;73.96
7760;BME280;3924;48.830;9.262;2022-11-15T14:02:29;97826.22;;;12.92;74.39
7760;BME280;3924;48.830;9.262;2022-11-15T14:05:20;97818.69;;;12.88;74.28
7760;BME280;3924;48.830;9.262;2022-11-15T14:10:45;97811.03;;;12.82;74.25
7760;BME280;3924;48.830;9.262;2022-11-15T14:13:30;97808.63;;;12.80;74.76
7760;BME280;3924;48.830;9.262;2022-11-15T14:16:20;97807.38;;;12.78;74.70
7760;BME280;3924;48.830;9.262;2022-11-15T14:18:58;97813.00;;;12.73;74.72
7760;BME280;3924;48.830;9.262;2022-11-15T14:24:33;97797.00;;;12.63;74.41
7760;BME280;3924;48.830;9.262;2022-11-15T14:27:24;97786.66;;;12.56;74.77
7760;BME280;3924;48.830;9.262;2022-11-15T14:29:53;97792.59;;;12.49;75.17
7760;BME280;3924;48.830;9.262;2022-11-15T14:35:51;97784.13;;;12.33;75.29
7760;BME280;3924;48.830;9.262;2022-11-15T14:38:28;97786.53;;;12.26;76.26
7760;BME280;3924;48.830;9.262;2022-11-15T14:41:26;97781.91;;;12.18;76.15
7760;BME280;3924;48.830;9.262;2022-11-15T14:44:28;97769.63;;;12.12;76.25
7760;BME280;3924;48.830;9.262;2022-11-15T14:46:59;97764.84;;;12.09;75.72
7760;BME280;3924;48.830;9.262;2022-11-15T14:49:30;97760.53;;;12.08;76.06
7760;BME280;3924;48.830;9.262;2022-11-15T14:51:56;97751.88;;;12.06;76.43
7760;BME280;3924;48.830;9.262;2022-11-15T14:54:23;97759.56;;;12.04;76.19
7760;BME280;3924;48.830;9.262;2022-11-15T14:56:49;97753.66;;;12.02;77.16
7760;BME280;3924;48.830;9.262;2022-11-15T14:59:16;97748.06;;;11.98;77.31
7760;BME280;3924;48.830;9.262;2022-11-15T15:01:42;97743.75;;;11.97;76.98
7760;BME280;3924;48.830;9.262;2022-11-15T15:04:10;97742.97;;;11.97;76.88
7760;BME280;3924;48.830;9.262;2022-11-15T15:06:36;97733.69;;;11.98;76.73
7760;BME280;3924;48.830;9.262;2022-11-15T15:09:03;97740.56;;;11.95;77.16
7760;BME280;3924;48.830;9.262;2022-11-15T15:11:31;97728.41;;;11.93;76.90
7760;BME280;3924;48.830;9.262;2022-11-15T15:13:57;97733.38;;;11.91;77.67
7760;BME280;3924;48.830;9.262;2022-11-15T15:16:27;97722.97;;;11.93;77.63
7760;BME280;3924;48.830;9.262;2022-11-15T15:18:53;97722.34;;;11.96;77.53
7760;BME280;3924;48.830;9.262;2022-11-15T15:21:27;97714.22;;;11.96;77.03
7760;BME280;3924;48.830;9.262;2022-11-15T15:24:01;97716.75;;;11.92;78.17
7760;BME280;3924;48.830;9.262;2022-11-15T15:26:28;97706.53;;;11.89;76.85
7760;BME280;3924;48.830;9.262;2022-11-15T15:28:55;97710.69;;;11.87;77.89
7760;BME280;3924;48.830;9.262;2022-11-15T15:31:21;97703.53;;;11.82;77.95
7760;BME280;3924;48.830;9.262;2022-11-15T15:33:47;97697.28;;;11.82;77.81
7760;BME280;3924;48.830;9.262;2022-11-15T15:36:17;97691.66;;;11.78;78.03